sensor_id;sensor_type;location;lat;lon;timestamp;P1;durP1;ratioP1;P2;durP2;ratioP2
43841;SDS011;29495;49.970;20.842;2022-09-23T00:00:42;8.75;;;6.15;;
43841;SDS011;29495;49.970;20.842;2022-09-23T00:03:09;11.52;;;6.95;;
43841;SDS011;29495;49.970;20.842;2022-09-23T00:05:36;8.80;;;6.07;;
43841;SDS011;29495;49.970;20.842;2022-09-23T00:08:07;11.20;;;7.05;;
43841;SDS011;29495;49.970;20.842;2022-09-23T00:10:41;9.23;;;5.90;;
43841;SDS011;29495;49.970;20.842;2022-09-23T00:13:07;9.30;;;6.70;;
43841;SDS011;29495;49.970;20.842;2022-09-23T00:15:37;10.50;;;6.50;;
43841;SDS011;29495;49.970;20.842;2022-09-23T00:18:04;9.45;;;6.03;;
43841;SDS011;29495;49.970;20.842;2022-09-23T00:20:35;10.32;;;6.15;;
43841;SDS011;29495;49.970;20.842;2022-09-23T00:23:01;9.48;;;5.60;;
43841;SDS011;29495;49.970;20.842;2022-09-23T00:25:28;10.02;;;6.45;;
43841;SDS011;29495;49.970;20.842;2022-09-23T00:27:54;8.13;;;5.80;;
43841;SDS011;29495;49.970;20.842;2022-09-23T00:30:21;7.90;;;6.25;;
43841;SDS011;29495;49.970;20.842;2022-09-23T00:32:47;10.55;;;7.25;;
43841;SDS011;29495;49.970;20.842;2022-09-23T00:35:14;10.57;;;7.22;;
43841;SDS011;29495;49.970;20.842;2022-09-23T00:37:40;11.80;;;7.90;;
43841;SDS011;29495;49.970;20.842;2022-09-23T00:40:06;10.50;;;6.80;;
43841;SDS011;29495;49.970;20.842;2022-09-23T00:42:33;9.73;;;7.28;;
43841;SDS011;29495;49.970;20.842;2022-09-23T00:44:59;14.40;;;8.73;;
43841;SDS011;29495;49.970;20.842;2022-09-23T00:50:32;8.95;;;7.18;;
43841;SDS011;29495;49.970;20.842;2022-09-23T00:53:05;11.25;;;7.32;;
43841;SDS011;29495;49.970;20.842;2022-09-23T00:55:39;10.48;;;7.70;;
43841;SDS011;29495;49.970;20.842;2022-09-23T00:58:20;11.75;;;6.57;;
43841;SDS011;29495;49.970;20.842;2022-09-23T01:00:52;10.80;;;7.10;;
43841;SDS011;29495;49.970;20.842;2022-09-23T01:03:18;11.60;;;7.75;;
43841;SDS011;29495;49.970;20.842;2022-09-23T01:05:47;9.63;;;6.77;;
43841;SDS011;29495;49.970;20.842;2022-09-23T01:08:13;12.05;;;7.38;;
43841;SDS011;29495;49.970;20.842;2022-09-23T01:16:15;10.13;;;7.00;;
43841;SDS011;29495;49.970;20.842;2022-09-23T01:21:48;9.57;;;6.75;;
43841;SDS011;29495;49.970;20.842;2022-09-23T01:27:15;10.55;;;6.93;;
43841;SDS011;29495;49.970;20.842;2022-09-23T01:35:44;8.63;;;6.95;;
43841;SDS011;29495;49.970;20.842;2022-09-23T01:41:03;8.45;;;5.00;;
43841;SDS011;29495;49.970;20.842;2022-09-23T01:43:51;8.43;;;6.05;;
43841;SDS011;29495;49.970;20.842;2022-09-23T01:46:41;13.95;;;7.03;;
43841;SDS011;29495;49.970;20.842;2022-09-23T01:51:50;10.20;;;6.82;;
43841;SDS011;29495;49.970;20.842;2022-09-23T01:54:42;9.27;;;6.43;;
43841;SDS011;29495;49.970;20.842;2022-09-23T01:57:23;8.93;;;6.28;;
43841;SDS011;29495;49.970;20.842;2022-09-23T02:00:03;9.43;;;6.95;;
43841;SDS011;29495;49.970;20.842;2022-09-23T02:03:02;10.15;;;7.03;;
43841;SDS011;29495;49.970;20.842;2022-09-23T02:05:38;9.75;;;6.38;;
43841;SDS011;29495;49.970;20.842;2022-09-23T02:10:43;11.35;;;7.38;;
43841;SDS011;29495;49.970;20.842;2022-09-23T02:13:22;10.00;;;5.68;;
43841;SDS011;29495;49.970;20.842;2022-09-23T02:15:55;9.55;;;6.28;;
43841;SDS011;29495;49.970;20.842;2022-09-23T02:18:33;9.85;;;6.70;;
43841;SDS011;29495;49.970;20.842;2022-09-23T02:21:10;8.82;;;6.03;;
43841;SDS011;29495;49.970;20.842;2022-09-23T02:23:47;9.23;;;6.35;;
43841;SDS011;29495;49.970;20.842;2022-09-23T02:26:21;9.85;;;5.63;;
43841;SDS011;29495;49.970;20.842;2022-09-23T02:31:56;10.77;;;7.53;;
43841;SDS011;29495;49.970;20.842;2022-09-23T02:34:37;10.63;;;6.57;;
43841;SDS011;29495;49.970;20.842;2022-09-23T02:37:32;11.40;;;6.28;;
43841;SDS011;29495;49.970;20.842;2022-09-23T02:40:14;8.85;;;5.88;;
43841;SDS011;29495;49.970;20.842;2022-09-23T02:45:39;11.38;;;7.07;;
43841;SDS011;29495;49.970;20.842;2022-09-23T02:48:11;10.73;;;6.63;;
43841;SDS011;29495;49.970;20.842;2022-09-23T02:50:40;10.82;;;6.45;;
43841;SDS011;29495;49.970;20.842;2022-09-23T02:53:06;11.35;;;6.35;;
43841;SDS011;29495;49.970;20.842;2022-09-23T02:55:33;11.60;;;7.15;;
43841;SDS011;29495;49.970;20.842;2022-09-23T02:57:59;9.73;;;6.82;;
43841;SDS011;29495;49.970;20.842;2022-09-23T03:03:25;13.55;;;8.00;;
43841;SDS011;29495;49.970;20.842;2022-09-23T03:06:09;11.93;;;7.97;;
43841;SDS011;29495;49.970;20.842;2022-09-23T03:08:57;9.93;;;7.32;;
43841;SDS011;29495;49.970;20.842;2022-09-23T03:11:33;8.20;;;6.30;;
43841;SDS011;29495;49.970;20.842;2022-09-23T03:14:39;9.68;;;6.80;;
43841;SDS011;29495;49.970;20.842;2022-09-23T03:17:37;10.80;;;7.43;;
43841;SDS011;29495;49.970;20.842;2022-09-23T03:20:23;9.40;;;7.40;;
43841;SDS011;29495;49.970;20.842;2022-09-23T03:23:00;11.93;;;7.43;;
43841;SDS011;29495;49.970;20.842;2022-09-23T03:25:31;12.40;;;8.55;;
43841;SDS011;29495;49.970;20.842;2022-09-23T03:28:01;10.23;;;7.78;;
43841;SDS011;29495;49.970;20.842;2022-09-23T03:30:29;11.90;;;8.05;;
43841;SDS011;29495;49.970;20.842;2022-09-23T03:32:59;10.95;;;7.53;;
43841;SDS011;29495;49.970;20.842;2022-09-23T03:35:29;11.80;;;7.32;;
43841;SDS011;29495;49.970;20.842;2022-09-23T03:38:18;9.70;;;6.78;;
43841;SDS011;29495;49.970;20.842;2022-09-23T03:40:48;12.32;;;8.43;;
43841;SDS011;29495;49.970;20.842;2022-09-23T03:43:17;13.63;;;7.85;;
43841;SDS011;29495;49.970;20.842;2022-09-23T03:45:44;10.38;;;7.30;;
43841;SDS011;29495;49.970;20.842;2022-09-23T03:48:11;11.27;;;8.18;;
43841;SDS011;29495;49.970;20.842;2022-09-23T03:50:39;10.85;;;7.78;;
43841;SDS011;29495;49.970;20.842;2022-09-23T03:53:05;10.65;;;7.55;;
43841;SDS011;29495;49.970;20.842;2022-09-23T03:55:32;8.15;;;6.57;;
43841;SDS011;29495;49.970;20.842;2022-09-23T03:57:59;13.20;;;8.10;;
43841;SDS011;29495;49.970;20.842;2022-09-23T04:00:27;12.30;;;7.47;;
43841;SDS011;29495;49.970;20.842;2022-09-23T04:02:53;11.35;;;7.60;;
43841;SDS011;29495;49.970;20.842;2022-09-23T04:05:19;10.02;;;7.18;;
43841;SDS011;29495;49.970;20.842;2022-09-23T04:07:45;14.02;;;8.77;;
43841;SDS011;29495;49.970;20.842;2022-09-23T04:10:12;13.35;;;8.55;;
43841;SDS011;29495;49.970;20.842;2022-09-23T04:12:38;10.70;;;7.35;;
43841;SDS011;29495;49.970;20.842;2022-09-23T04:15:04;12.23;;;8.38;;
43841;SDS011;29495;49.970;20.842;2022-09-23T04:17:30;13.75;;;7.40;;
43841;SDS011;29495;49.970;20.842;2022-09-23T04:19:56;13.35;;;8.35;;
43841;SDS011;29495;49.970;20.842;2022-09-23T04:22:22;11.75;;;8.15;;
43841;SDS011;29495;49.970;20.842;2022-09-23T04:24:48;12.07;;;8.27;;
43841;SDS011;29495;49.970;20.842;2022-09-23T04:27:15;14.10;;;8.63;;
43841;SDS011;29495;49.970;20.842;2022-09-23T04:29:41;13.68;;;9.68;;
43841;SDS011;29495;49.970;20.842;2022-09-23T04:32:07;12.93;;;8.45;;
43841;SDS011;29495;49.970;20.842;2022-09-23T04:34:33;18.20;;;9.95;;
43841;SDS011;29495;49.970;20.842;2022-09-23T04:36:59;12.80;;;8.57;;
43841;SDS011;29495;49.970;20.842;2022-09-23T04:39:25;13.27;;;8.57;;
43841;SDS011;29495;49.970;20.842;2022-09-23T04:41:51;12.60;;;9.20;;
43841;SDS011;29495;49.970;20.842;2022-09-23T04:44:16;14.88;;;9.70;;
43841;SDS011;29495;49.970;20.842;2022-09-23T04:46:43;18.77;;;11.27;;
43841;SDS011;29495;49.970;20.842;2022-09-23T04:49:12;11.82;;;8.15;;
43841;SDS011;29495;49.970;20.842;2022-09-23T04:51:39;12.38;;;8.38;;
43841;SDS011;29495;49.970;20.842;2022-09-23T04:54:08;13.43;;;9.75;;
43841;SDS011;29495;49.970;20.842;2022-09-23T04:56:35;16.55;;;10.63;;
43841;SDS011;29495;49.970;20.842;2022-09-23T04:59:01;14.48;;;10.20;;
43841;SDS011;29495;49.970;20.842;2022-09-23T05:01:29;14.82;;;10.13;;
43841;SDS011;29495;49.970;20.842;2022-09-23T05:03:57;14.65;;;10.27;;
43841;SDS011;29495;49.970;20.842;2022-09-23T05:06:28;14.32;;;11.05;;
43841;SDS011;29495;49.970;20.842;2022-09-23T05:08:56;17.08;;;9.07;;
43841;SDS011;29495;49.970;20.842;2022-09-23T05:11:24;14.07;;;9.25;;
43841;SDS011;29495;49.970;20.842;2022-09-23T05:13:51;13.90;;;8.88;;
43841;SDS011;29495;49.970;20.842;2022-09-23T05:16:19;14.63;;;10.40;;
43841;SDS011;29495;49.970;20.842;2022-09-23T05:18:47;12.90;;;8.80;;
43841;SDS011;29495;49.970;20.842;2022-09-23T05:21:15;10.95;;;8.25;;
43841;SDS011;29495;49.970;20.842;2022-09-23T05:23:46;13.27;;;9.18;;
43841;SDS011;29495;49.970;20.842;2022-09-23T05:26:13;13.95;;;9.48;;
43841;SDS011;29495;49.970;20.842;2022-09-23T05:28:39;15.55;;;10.63;;
43841;SDS011;29495;49.970;20.842;2022-09-23T05:31:07;12.35;;;8.82;;
43841;SDS011;29495;49.970;20.842;2022-09-23T05:33:39;13.93;;;8.98;;
43841;SDS011;29495;49.970;20.842;2022-09-23T05:36:06;14.40;;;9.52;;
43841;SDS011;29495;49.970;20.842;2022-09-23T05:38:32;13.80;;;9.77;;
43841;SDS011;29495;49.970;20.842;2022-09-23T05:41:02;14.25;;;10.00;;
43841;SDS011;29495;49.970;20.842;2022-09-23T05:43:30;17.75;;;9.93;;
43841;SDS011;29495;49.970;20.842;2022-09-23T05:46:03;13.10;;;9.30;;
43841;SDS011;29495;49.970;20.842;2022-09-23T05:48:41;12.68;;;7.75;;
43841;SDS011;29495;49.970;20.842;2022-09-23T05:51:12;18.27;;;10.40;;
43841;SDS011;29495;49.970;20.842;2022-09-23T05:53:43;17.05;;;11.68;;
43841;SDS011;29495;49.970;20.842;2022-09-23T05:56:10;15.05;;;10.20;;
43841;SDS011;29495;49.970;20.842;2022-09-23T05:58:37;10.55;;;7.90;;
43841;SDS011;29495;49.970;20.842;2022-09-23T06:03:37;9.52;;;6.68;;
43841;SDS011;29495;49.970;20.842;2022-09-23T06:06:03;11.20;;;7.95;;
43841;SDS011;29495;49.970;20.842;2022-09-23T06:08:30;14.63;;;10.20;;
43841;SDS011;29495;49.970;20.842;2022-09-23T06:11:02;17.58;;;12.07;;
43841;SDS011;29495;49.970;20.842;2022-09-23T06:13:31;17.15;;;11.43;;
43841;SDS011;29495;49.970;20.842;2022-09-23T06:16:00;15.57;;;10.63;;
43841;SDS011;29495;49.970;20.842;2022-09-23T06:18:26;14.07;;;9.82;;
43841;SDS011;29495;49.970;20.842;2022-09-23T06:20:52;14.13;;;10.07;;
43841;SDS011;29495;49.970;20.842;2022-09-23T06:23:18;14.48;;;10.30;;
43841;SDS011;29495;49.970;20.842;2022-09-23T06:25:44;18.40;;;10.25;;
43841;SDS011;29495;49.970;20.842;2022-09-23T06:28:10;11.88;;;8.65;;
43841;SDS011;29495;49.970;20.842;2022-09-23T06:30:36;17.33;;;10.68;;
43841;SDS011;29495;49.970;20.842;2022-09-23T06:33:04;14.77;;;9.35;;
43841;SDS011;29495;49.970;20.842;2022-09-23T06:35:30;12.75;;;8.88;;
43841;SDS011;29495;49.970;20.842;2022-09-23T06:40:27;15.23;;;10.13;;
43841;SDS011;29495;49.970;20.842;2022-09-23T06:43:00;13.05;;;9.88;;
43841;SDS011;29495;49.970;20.842;2022-09-23T06:45:26;14.73;;;10.38;;
43841;SDS011;29495;49.970;20.842;2022-09-23T06:47:53;16.10;;;10.57;;
43841;SDS011;29495;49.970;20.842;2022-09-23T06:50:21;18.20;;;10.70;;
43841;SDS011;29495;49.970;20.842;2022-09-23T06:52:54;13.70;;;9.95;;
43841;SDS011;29495;49.970;20.842;2022-09-23T06:55:26;15.55;;;10.68;;
43841;SDS011;29495;49.970;20.842;2022-09-23T06:57:53;12.88;;;8.55;;
43841;SDS011;29495;49.970;20.842;2022-09-23T07:00:19;12.05;;;8.90;;
43841;SDS011;29495;49.970;20.842;2022-09-23T07:02:46;16.35;;;10.68;;
43841;SDS011;29495;49.970;20.842;2022-09-23T07:05:12;14.23;;;9.15;;
43841;SDS011;29495;49.970;20.842;2022-09-23T07:07:40;13.57;;;9.77;;
43841;SDS011;29495;49.970;20.842;2022-09-23T07:10:07;12.25;;;9.38;;
43841;SDS011;29495;49.970;20.842;2022-09-23T07:12:34;15.02;;;10.07;;
43841;SDS011;29495;49.970;20.842;2022-09-23T07:15:00;11.68;;;8.90;;
43841;SDS011;29495;49.970;20.842;2022-09-23T07:17:26;12.65;;;8.55;;
43841;SDS011;29495;49.970;20.842;2022-09-23T07:19:52;13.55;;;9.20;;
43841;SDS011;29495;49.970;20.842;2022-09-23T07:24:49;11.90;;;8.07;;
43841;SDS011;29495;49.970;20.842;2022-09-23T07:27:16;11.65;;;8.65;;
43841;SDS011;29495;49.970;20.842;2022-09-23T07:29:44;10.35;;;7.70;;
43841;SDS011;29495;49.970;20.842;2022-09-23T07:32:12;13.88;;;8.77;;
43841;SDS011;29495;49.970;20.842;2022-09-23T07:34:38;12.73;;;8.30;;
43841;SDS011;29495;49.970;20.842;2022-09-23T07:37:04;12.65;;;7.68;;
43841;SDS011;29495;49.970;20.842;2022-09-23T07:39:30;13.55;;;8.45;;
43841;SDS011;29495;49.970;20.842;2022-09-23T07:41:56;11.73;;;8.10;;
43841;SDS011;29495;49.970;20.842;2022-09-23T07:44:22;11.27;;;8.25;;
43841;SDS011;29495;49.970;20.842;2022-09-23T07:46:49;14.45;;;8.75;;
43841;SDS011;29495;49.970;20.842;2022-09-23T07:49:15;11.20;;;7.97;;
43841;SDS011;29495;49.970;20.842;2022-09-23T07:51:42;13.27;;;9.48;;
43841;SDS011;29495;49.970;20.842;2022-09-23T07:54:11;13.55;;;7.22;;
43841;SDS011;29495;49.970;20.842;2022-09-23T07:56:39;10.23;;;7.57;;
43841;SDS011;29495;49.970;20.842;2022-09-23T07:59:06;10.15;;;6.88;;
43841;SDS011;29495;49.970;20.842;2022-09-23T08:01:36;9.63;;;7.35;;
43841;SDS011;29495;49.970;20.842;2022-09-23T08:04:05;10.45;;;7.45;;
43841;SDS011;29495;49.970;20.842;2022-09-23T08:06:39;8.07;;;6.25;;
43841;SDS011;29495;49.970;20.842;2022-09-23T08:09:06;12.00;;;6.43;;
43841;SDS011;29495;49.970;20.842;2022-09-23T08:11:33;8.75;;;5.25;;
43841;SDS011;29495;49.970;20.842;2022-09-23T08:14:01;10.30;;;6.80;;
43841;SDS011;29495;49.970;20.842;2022-09-23T08:16:27;10.60;;;7.22;;
43841;SDS011;29495;49.970;20.842;2022-09-23T08:18:53;11.18;;;7.82;;
43841;SDS011;29495;49.970;20.842;2022-09-23T08:21:19;9.77;;;6.88;;
43841;SDS011;29495;49.970;20.842;2022-09-23T08:23:46;10.43;;;7.20;;
43841;SDS011;29495;49.970;20.842;2022-09-23T08:26:13;9.68;;;6.28;;
43841;SDS011;29495;49.970;20.842;2022-09-23T08:28:38;8.95;;;5.80;;
43841;SDS011;29495;49.970;20.842;2022-09-23T08:31:05;6.35;;;4.47;;
43841;SDS011;29495;49.970;20.842;2022-09-23T08:33:32;6.90;;;4.50;;
43841;SDS011;29495;49.970;20.842;2022-09-23T08:35:59;9.05;;;6.13;;
43841;SDS011;29495;49.970;20.842;2022-09-23T08:38:26;6.85;;;5.22;;
43841;SDS011;29495;49.970;20.842;2022-09-23T08:40:54;5.70;;;4.03;;
43841;SDS011;29495;49.970;20.842;2022-09-23T08:43:50;5.18;;;4.60;;
43841;SDS011;29495;49.970;20.842;2022-09-23T08:46:23;5.32;;;3.90;;
43841;SDS011;29495;49.970;20.842;2022-09-23T08:48:55;5.25;;;3.78;;
43841;SDS011;29495;49.970;20.842;2022-09-23T08:51:26;5.32;;;3.60;;
43841;SDS011;29495;49.970;20.842;2022-09-23T08:53:57;4.75;;;3.40;;
43841;SDS011;29495;49.970;20.842;2022-09-23T08:56:24;4.72;;;3.05;;
43841;SDS011;29495;49.970;20.842;2022-09-23T08:59:08;4.30;;;3.17;;
43841;SDS011;29495;49.970;20.842;2022-09-23T09:04:22;3.58;;;2.28;;
43841;SDS011;29495;49.970;20.842;2022-09-23T09:09:43;3.28;;;2.70;;
43841;SDS011;29495;49.970;20.842;2022-09-23T09:12:17;4.60;;;3.22;;
43841;SDS011;29495;49.970;20.842;2022-09-23T09:15:01;4.13;;;2.95;;
43841;SDS011;29495;49.970;20.842;2022-09-23T09:28:21;2.38;;;1.77;;
43841;SDS011;29495;49.970;20.842;2022-09-23T09:30:56;3.42;;;2.15;;
43841;SDS011;29495;49.970;20.842;2022-09-23T09:33:31;2.97;;;1.80;;
43841;SDS011;29495;49.970;20.842;2022-09-23T09:36:18;2.88;;;1.95;;
43841;SDS011;29495;49.970;20.842;2022-09-23T09:39:07;4.20;;;2.03;;
43841;SDS011;29495;49.970;20.842;2022-09-23T09:41:39;3.15;;;2.55;;
43841;SDS011;29495;49.970;20.842;2022-09-23T09:44:55;3.08;;;2.20;;
43841;SDS011;29495;49.970;20.842;2022-09-23T09:47:12;2.80;;;2.03;;
43841;SDS011;29495;49.970;20.842;2022-09-23T09:49:56;2.78;;;2.10;;
43841;SDS011;29495;49.970;20.842;2022-09-23T09:52:28;1.75;;;1.60;;
43841;SDS011;29495;49.970;20.842;2022-09-23T10:02:55;3.78;;;1.95;;
43841;SDS011;29495;49.970;20.842;2022-09-23T10:05:32;1.85;;;1.40;;
43841;SDS011;29495;49.970;20.842;2022-09-23T10:11:00;1.70;;;1.60;;
43841;SDS011;29495;49.970;20.842;2022-09-23T10:13:30;2.35;;;1.90;;
43841;SDS011;29495;49.970;20.842;2022-09-23T10:15:57;3.15;;;2.33;;
43841;SDS011;29495;49.970;20.842;2022-09-23T10:21:58;2.92;;;1.90;;
43841;SDS011;29495;49.970;20.842;2022-09-23T10:25:09;1.70;;;1.40;;
43841;SDS011;29495;49.970;20.842;2022-09-23T10:27:50;1.67;;;1.15;;
43841;SDS011;29495;49.970;20.842;2022-09-23T10:30:20;1.10;;;1.00;;
43841;SDS011;29495;49.970;20.842;2022-09-23T10:32:48;2.05;;;1.00;;
43841;SDS011;29495;49.970;20.842;2022-09-23T10:35:17;1.08;;;0.95;;
43841;SDS011;29495;49.970;20.842;2022-09-23T10:37:49;1.85;;;1.05;;
43841;SDS011;29495;49.970;20.842;2022-09-23T10:40:39;1.20;;;1.08;;
43841;SDS011;29495;49.970;20.842;2022-09-23T10:46:27;1.70;;;1.23;;
43841;SDS011;29495;49.970;20.842;2022-09-23T11:28:27;1.05;;;1.00;;
43841;SDS011;29495;49.970;20.842;2022-09-23T11:36:34;1.42;;;1.08;;
43841;SDS011;29495;49.970;20.842;2022-09-23T11:39:16;1.58;;;1.13;;
43841;SDS011;29495;49.970;20.842;2022-09-23T11:41:45;1.70;;;1.20;;
43841;SDS011;29495;49.970;20.842;2022-09-23T11:46:45;0.98;;;0.85;;
43841;SDS011;29495;49.970;20.842;2022-09-23T11:49:18;1.50;;;0.80;;
43841;SDS011;29495;49.970;20.842;2022-09-23T11:52:04;2.13;;;1.60;;
43841;SDS011;29495;49.970;20.842;2022-09-23T11:54:45;1.10;;;0.82;;
43841;SDS011;29495;49.970;20.842;2022-09-23T11:57:41;0.70;;;0.70;;
43841;SDS011;29495;49.970;20.842;2022-09-23T12:00:16;1.77;;;1.20;;
43841;SDS011;29495;49.970;20.842;2022-09-23T12:08:32;1.02;;;0.90;;
43841;SDS011;29495;49.970;20.842;2022-09-23T12:19:32;0.75;;;0.75;;
43841;SDS011;29495;49.970;20.842;2022-09-23T12:27:55;1.13;;;0.80;;
43841;SDS011;29495;49.970;20.842;2022-09-23T12:30:16;0.63;;;0.60;;
43841;SDS011;29495;49.970;20.842;2022-09-23T12:32:48;0.90;;;0.80;;
43841;SDS011;29495;49.970;20.842;2022-09-23T12:35:25;0.60;;;0.60;;
43841;SDS011;29495;49.970;20.842;2022-09-23T12:37:58;1.20;;;0.80;;
43841;SDS011;29495;49.970;20.842;2022-09-23T12:40:28;1.23;;;0.60;;
43841;SDS011;29495;49.970;20.842;2022-09-23T12:43:19;0.52;;;0.47;;
43841;SDS011;29495;49.970;20.842;2022-09-23T12:45:54;1.00;;;0.85;;
43841;SDS011;29495;49.970;20.842;2022-09-23T12:51:16;0.77;;;0.50;;
43841;SDS011;29495;49.970;20.842;2022-09-23T12:56:17;0.75;;;0.70;;
43841;SDS011;29495;49.970;20.842;2022-09-23T13:03:55;0.50;;;0.50;;
43841;SDS011;29495;49.970;20.842;2022-09-23T13:09:37;0.80;;;0.60;;
43841;SDS011;29495;49.970;20.842;2022-09-23T13:12:07;1.08;;;0.60;;
43841;SDS011;29495;49.970;20.842;2022-09-23T13:15:01;1.58;;;0.60;;
43841;SDS011;29495;49.970;20.842;2022-09-23T13:17:31;0.55;;;0.52;;
43841;SDS011;29495;49.970;20.842;2022-09-23T13:20:05;1.42;;;0.60;;
43841;SDS011;29495;49.970;20.842;2022-09-23T13:25:38;1.17;;;0.50;;
43841;SDS011;29495;49.970;20.842;2022-09-23T13:28:12;2.63;;;0.80;;
43841;SDS011;29495;49.970;20.842;2022-09-23T13:30:48;0.60;;;0.60;;
43841;SDS011;29495;49.970;20.842;2022-09-23T13:36:15;3.72;;;0.60;;
43841;SDS011;29495;49.970;20.842;2022-09-23T13:38:42;1.58;;;0.80;;
43841;SDS011;29495;49.970;20.842;2022-09-23T13:41:14;0.80;;;0.68;;
43841;SDS011;29495;49.970;20.842;2022-09-23T13:43:44;1.48;;;0.75;;
43841;SDS011;29495;49.970;20.842;2022-09-23T13:46:18;1.00;;;0.80;;
43841;SDS011;29495;49.970;20.842;2022-09-23T13:48:47;1.30;;;1.15;;
43841;SDS011;29495;49.970;20.842;2022-09-23T13:51:20;1.15;;;0.85;;
43841;SDS011;29495;49.970;20.842;2022-09-23T13:53:52;1.25;;;1.02;;
43841;SDS011;29495;49.970;20.842;2022-09-23T13:56:20;0.75;;;0.60;;
43841;SDS011;29495;49.970;20.842;2022-09-23T13:58:46;0.85;;;0.63;;
43841;SDS011;29495;49.970;20.842;2022-09-23T14:01:46;0.73;;;0.73;;
43841;SDS011;29495;49.970;20.842;2022-09-23T14:04:18;1.35;;;1.02;;
43841;SDS011;29495;49.970;20.842;2022-09-23T14:06:48;1.30;;;1.00;;
43841;SDS011;29495;49.970;20.842;2022-09-23T14:09:14;1.02;;;0.80;;
43841;SDS011;29495;49.970;20.842;2022-09-23T14:11:42;1.65;;;0.70;;
43841;SDS011;29495;49.970;20.842;2022-09-23T14:14:12;1.52;;;0.75;;
43841;SDS011;29495;49.970;20.842;2022-09-23T14:16:39;1.17;;;1.00;;
43841;SDS011;29495;49.970;20.842;2022-09-23T14:19:08;1.17;;;0.77;;
43841;SDS011;29495;49.970;20.842;2022-09-23T14:21:41;1.13;;;0.80;;
43841;SDS011;29495;49.970;20.842;2022-09-23T14:24:11;1.02;;;0.80;;
43841;SDS011;29495;49.970;20.842;2022-09-23T14:26:38;0.50;;;0.50;;
43841;SDS011;29495;49.970;20.842;2022-09-23T14:29:10;0.75;;;0.73;;
43841;SDS011;29495;49.970;20.842;2022-09-23T14:31:52;0.85;;;0.70;;
43841;SDS011;29495;49.970;20.842;2022-09-23T14:40:05;1.77;;;0.90;;
43841;SDS011;29495;49.970;20.842;2022-09-23T14:42:41;2.97;;;1.50;;
43841;SDS011;29495;49.970;20.842;2022-09-23T14:48:15;1.10;;;0.60;;
43841;SDS011;29495;49.970;20.842;2022-09-23T14:50:55;1.20;;;1.00;;
43841;SDS011;29495;49.970;20.842;2022-09-23T14:53:40;1.95;;;0.80;;
43841;SDS011;29495;49.970;20.842;2022-09-23T14:56:12;1.15;;;0.88;;
43841;SDS011;29495;49.970;20.842;2022-09-23T15:01:31;0.85;;;0.68;;
43841;SDS011;29495;49.970;20.842;2022-09-23T15:03:58;0.98;;;0.88;;
43841;SDS011;29495;49.970;20.842;2022-09-23T15:06:41;1.23;;;0.57;;
43841;SDS011;29495;49.970;20.842;2022-09-23T15:09:16;1.30;;;0.57;;
43841;SDS011;29495;49.970;20.842;2022-09-23T15:12:04;0.75;;;0.70;;
43841;SDS011;29495;49.970;20.842;2022-09-23T15:14:38;0.95;;;0.70;;
43841;SDS011;29495;49.970;20.842;2022-09-23T15:17:19;0.90;;;0.65;;
43841;SDS011;29495;49.970;20.842;2022-09-23T15:19:55;1.55;;;1.02;;
43841;SDS011;29495;49.970;20.842;2022-09-23T15:22:23;1.80;;;0.90;;
43841;SDS011;29495;49.970;20.842;2022-09-23T15:24:51;1.25;;;0.95;;
43841;SDS011;29495;49.970;20.842;2022-09-23T15:27:26;1.10;;;0.65;;
43841;SDS011;29495;49.970;20.842;2022-09-23T15:30:01;0.93;;;0.60;;
43841;SDS011;29495;49.970;20.842;2022-09-23T15:32:39;1.73;;;1.02;;
43841;SDS011;29495;49.970;20.842;2022-09-23T15:35:10;1.52;;;0.80;;
43841;SDS011;29495;49.970;20.842;2022-09-23T15:37:38;1.42;;;0.90;;
43841;SDS011;29495;49.970;20.842;2022-09-23T15:40:04;1.38;;;1.17;;
43841;SDS011;29495;49.970;20.842;2022-09-23T15:42:31;1.13;;;0.75;;
43841;SDS011;29495;49.970;20.842;2022-09-23T15:44:58;1.17;;;0.70;;
43841;SDS011;29495;49.970;20.842;2022-09-23T15:47:25;1.13;;;0.75;;
43841;SDS011;29495;49.970;20.842;2022-09-23T15:49:51;0.95;;;0.60;;
43841;SDS011;29495;49.970;20.842;2022-09-23T15:52:17;0.82;;;0.80;;
43841;SDS011;29495;49.970;20.842;2022-09-23T15:54:46;1.13;;;0.93;;
43841;SDS011;29495;49.970;20.842;2022-09-23T15:57:13;0.85;;;0.77;;
43841;SDS011;29495;49.970;20.842;2022-09-23T15:59:39;1.05;;;0.90;;
43841;SDS011;29495;49.970;20.842;2022-09-23T16:02:11;1.45;;;1.20;;
43841;SDS011;29495;49.970;20.842;2022-09-23T16:04:43;1.20;;;0.90;;
43841;SDS011;29495;49.970;20.842;2022-09-23T16:07:14;1.13;;;0.82;;
43841;SDS011;29495;49.970;20.842;2022-09-23T16:09:41;1.27;;;0.90;;
43841;SDS011;29495;49.970;20.842;2022-09-23T16:12:08;1.50;;;1.00;;
43841;SDS011;29495;49.970;20.842;2022-09-23T16:14:36;0.95;;;0.85;;
43841;SDS011;29495;49.970;20.842;2022-09-23T16:17:02;1.27;;;1.00;;
43841;SDS011;29495;49.970;20.842;2022-09-23T16:19:29;1.10;;;0.80;;
43841;SDS011;29495;49.970;20.842;2022-09-23T16:21:58;1.02;;;0.73;;
43841;SDS011;29495;49.970;20.842;2022-09-23T16:24:24;1.10;;;0.80;;
43841;SDS011;29495;49.970;20.842;2022-09-23T16:26:50;1.38;;;1.13;;
43841;SDS011;29495;49.970;20.842;2022-09-23T16:29:16;1.23;;;1.00;;
43841;SDS011;29495;49.970;20.842;2022-09-23T16:31:42;1.65;;;1.00;;
43841;SDS011;29495;49.970;20.842;2022-09-23T16:34:08;4.13;;;1.40;;
43841;SDS011;29495;49.970;20.842;2022-09-23T16:36:38;4.15;;;1.70;;
43841;SDS011;29495;49.970;20.842;2022-09-23T16:39:07;4.63;;;2.28;;
43841;SDS011;29495;49.970;20.842;2022-09-23T16:41:36;3.45;;;2.38;;
43841;SDS011;29495;49.970;20.842;2022-09-23T16:44:03;5.07;;;2.22;;
43841;SDS011;29495;49.970;20.842;2022-09-23T16:46:31;3.17;;;2.20;;
43841;SDS011;29495;49.970;20.842;2022-09-23T16:48:58;3.60;;;2.15;;
43841;SDS011;29495;49.970;20.842;2022-09-23T16:51:26;4.25;;;2.60;;
43841;SDS011;29495;49.970;20.842;2022-09-23T16:53:54;4.20;;;1.95;;
43841;SDS011;29495;49.970;20.842;2022-09-23T16:56:22;4.40;;;2.55;;
43841;SDS011;29495;49.970;20.842;2022-09-23T16:58:50;9.82;;;5.13;;
43841;SDS011;29495;49.970;20.842;2022-09-23T17:01:17;10.45;;;4.93;;
43841;SDS011;29495;49.970;20.842;2022-09-23T17:04:04;7.80;;;3.92;;
43841;SDS011;29495;49.970;20.842;2022-09-23T17:06:32;7.30;;;3.42;;
43841;SDS011;29495;49.970;20.842;2022-09-23T17:08:58;8.15;;;4.22;;
43841;SDS011;29495;49.970;20.842;2022-09-23T17:11:24;11.20;;;5.57;;
43841;SDS011;29495;49.970;20.842;2022-09-23T17:13:52;14.43;;;6.60;;
43841;SDS011;29495;49.970;20.842;2022-09-23T17:16:25;12.82;;;6.70;;
43841;SDS011;29495;49.970;20.842;2022-09-23T17:18:53;10.50;;;5.93;;
43841;SDS011;29495;49.970;20.842;2022-09-23T17:21:20;10.45;;;5.72;;
43841;SDS011;29495;49.970;20.842;2022-09-23T17:23:54;9.95;;;4.55;;
43841;SDS011;29495;49.970;20.842;2022-09-23T17:26:21;7.95;;;4.43;;
43841;SDS011;29495;49.970;20.842;2022-09-23T17:28:49;21.38;;;10.75;;
43841;SDS011;29495;49.970;20.842;2022-09-23T17:31:17;22.80;;;8.18;;
43841;SDS011;29495;49.970;20.842;2022-09-23T17:33:43;15.25;;;7.03;;
43841;SDS011;29495;49.970;20.842;2022-09-23T17:36:10;14.07;;;6.70;;
43841;SDS011;29495;49.970;20.842;2022-09-23T17:38:37;10.02;;;5.25;;
43841;SDS011;29495;49.970;20.842;2022-09-23T17:41:08;10.05;;;5.07;;
43841;SDS011;29495;49.970;20.842;2022-09-23T17:43:35;9.68;;;4.88;;
43841;SDS011;29495;49.970;20.842;2022-09-23T17:46:03;11.43;;;5.32;;
43841;SDS011;29495;49.970;20.842;2022-09-23T17:48:35;12.68;;;6.72;;